sensor_id;sensor_type;location;lat;lon;timestamp;P1;durP1;ratioP1;P2;durP2;ratioP2
66702;SDS011;60933;46.398;-63.798;2022-09-09T00:02:19;2.15;;;0.30;;
66702;SDS011;60933;46.398;-63.798;2022-09-09T00:04:58;1.20;;;0.43;;
66702;SDS011;60933;46.398;-63.798;2022-09-09T00:07:42;1.00;;;0.70;;
66702;SDS011;60933;46.398;-63.798;2022-09-09T00:21:38;13.30;;;7.43;;
66702;SDS011;60933;46.398;-63.798;2022-09-09T00:27:19;12.63;;;6.53;;
66702;SDS011;60933;46.398;-63.798;2022-09-09T00:32:45;1.92;;;1.05;;
66702;SDS011;60933;46.398;-63.798;2022-09-09T00:35:17;2.35;;;1.45;;
66702;SDS011;60933;46.398;-63.798;2022-09-09T00:37:50;1.65;;;0.80;;
66702;SDS011;60933;46.398;-63.798;2022-09-09T00:40:27;1.00;;;0.60;;
66702;SDS011;60933;46.398;-63.798;2022-09-09T00:43:07;2.28;;;1.17;;
66702;SDS011;60933;46.398;-63.798;2022-09-09T00:46:10;1.33;;;1.20;;
66702;SDS011;60933;46.398;-63.798;2022-09-09T00:48:44;1.50;;;1.20;;
66702;SDS011;60933;46.398;-63.798;2022-09-09T00:57:21;1.65;;;0.70;;
66702;SDS011;60933;46.398;-63.798;2022-09-09T00:59:56;2.53;;;1.35;;
66702;SDS011;60933;46.398;-63.798;2022-09-09T01:02:27;2.50;;;1.10;;
66702;SDS011;60933;46.398;-63.798;2022-09-09T01:05:12;2.38;;;1.17;;
66702;SDS011;60933;46.398;-63.798;2022-09-09T01:07:47;3.35;;;2.08;;
66702;SDS011;60933;46.398;-63.798;2022-09-09T01:10:39;8.13;;;5.38;;
66702;SDS011;60933;46.398;-63.798;2022-09-09T01:13:24;3.42;;;1.60;;
66702;SDS011;60933;46.398;-63.798;2022-09-09T01:15:55;1.40;;;0.73;;
66702;SDS011;60933;46.398;-63.798;2022-09-09T01:18:37;1.70;;;0.68;;
66702;SDS011;60933;46.398;-63.798;2022-09-09T01:21:22;2.05;;;1.30;;
66702;SDS011;60933;46.398;-63.798;2022-09-09T01:26:46;5.65;;;2.33;;
66702;SDS011;60933;46.398;-63.798;2022-09-09T01:29:17;3.55;;;1.27;;
66702;SDS011;60933;46.398;-63.798;2022-09-09T01:31:54;2.30;;;1.52;;
66702;SDS011;60933;46.398;-63.798;2022-09-09T01:34:27;2.35;;;1.30;;
66702;SDS011;60933;46.398;-63.798;2022-09-09T01:39:31;2.80;;;1.92;;
66702;SDS011;60933;46.398;-63.798;2022-09-09T01:41:59;3.95;;;3.10;;
66702;SDS011;60933;46.398;-63.798;2022-09-09T01:44:25;5.32;;;2.88;;
66702;SDS011;60933;46.398;-63.798;2022-09-09T01:46:52;3.75;;;2.20;;
66702;SDS011;60933;46.398;-63.798;2022-09-09T01:49:18;2.10;;;1.60;;
66702;SDS011;60933;46.398;-63.798;2022-09-09T01:51:46;2.65;;;1.10;;
66702;SDS011;60933;46.398;-63.798;2022-09-09T01:54:19;4.30;;;0.70;;
66702;SDS011;60933;46.398;-63.798;2022-09-09T01:56:55;1.00;;;0.60;;
66702;SDS011;60933;46.398;-63.798;2022-09-09T02:02:18;1.10;;;0.52;;
66702;SDS011;60933;46.398;-63.798;2022-09-09T02:08:05;1.98;;;0.63;;
66702;SDS011;60933;46.398;-63.798;2022-09-09T02:10:39;2.75;;;1.10;;
66702;SDS011;60933;46.398;-63.798;2022-09-09T02:13:19;2.08;;;0.73;;
66702;SDS011;60933;46.398;-63.798;2022-09-09T02:21:08;7.45;;;4.05;;
66702;SDS011;60933;46.398;-63.798;2022-09-09T02:23:36;44.08;;;22.45;;
66702;SDS011;60933;46.398;-63.798;2022-09-09T02:26:05;35.15;;;19.35;;
66702;SDS011;60933;46.398;-63.798;2022-09-09T02:28:33;9.70;;;6.30;;
66702;SDS011;60933;46.398;-63.798;2022-09-09T02:31:01;6.40;;;4.50;;
66702;SDS011;60933;46.398;-63.798;2022-09-09T02:33:32;6.30;;;4.35;;
66702;SDS011;60933;46.398;-63.798;2022-09-09T02:36:02;3.97;;;2.85;;
66702;SDS011;60933;46.398;-63.798;2022-09-09T02:38:33;2.83;;;1.70;;
66702;SDS011;60933;46.398;-63.798;2022-09-09T02:41:05;1.65;;;0.90;;
66702;SDS011;60933;46.398;-63.798;2022-09-09T02:43:32;1.80;;;0.73;;
66702;SDS011;60933;46.398;-63.798;2022-09-09T02:46:14;3.03;;;0.93;;
66702;SDS011;60933;46.398;-63.798;2022-09-09T02:52:13;1.45;;;0.60;;
66702;SDS011;60933;46.398;-63.798;2022-09-09T02:54:43;1.33;;;0.70;;
66702;SDS011;60933;46.398;-63.798;2022-09-09T02:59:38;1.27;;;0.40;;
66702;SDS011;60933;46.398;-63.798;2022-09-09T03:02:05;1.13;;;0.60;;
66702;SDS011;60933;46.398;-63.798;2022-09-09T03:04:31;0.90;;;0.47;;
66702;SDS011;60933;46.398;-63.798;2022-09-09T03:06:57;1.65;;;1.25;;
66702;SDS011;60933;46.398;-63.798;2022-09-09T03:09:24;1.73;;;0.52;;
66702;SDS011;60933;46.398;-63.798;2022-09-09T03:11:51;0.85;;;0.47;;
66702;SDS011;60933;46.398;-63.798;2022-09-09T03:14:17;1.88;;;0.98;;
66702;SDS011;60933;46.398;-63.798;2022-09-09T03:16:46;2.53;;;0.80;;
66702;SDS011;60933;46.398;-63.798;2022-09-09T03:19:13;1.63;;;0.82;;
66702;SDS011;60933;46.398;-63.798;2022-09-09T03:21:39;1.20;;;0.60;;
66702;SDS011;60933;46.398;-63.798;2022-09-09T03:24:05;0.82;;;0.60;;
66702;SDS011;60933;46.398;-63.798;2022-09-09T03:26:31;1.25;;;0.60;;
66702;SDS011;60933;46.398;-63.798;2022-09-09T03:28:58;0.90;;;0.50;;
66702;SDS011;60933;46.398;-63.798;2022-09-09T03:31:25;1.00;;;0.45;;
66702;SDS011;60933;46.398;-63.798;2022-09-09T03:33:56;1.52;;;0.60;;
66702;SDS011;60933;46.398;-63.798;2022-09-09T03:36:25;0.50;;;0.43;;
66702;SDS011;60933;46.398;-63.798;2022-09-09T03:38:52;0.82;;;0.40;;
66702;SDS011;60933;46.398;-63.798;2022-09-09T03:41:19;1.02;;;0.70;;
66702;SDS011;60933;46.398;-63.798;2022-09-09T03:43:49;0.75;;;0.30;;
66702;SDS011;60933;46.398;-63.798;2022-09-09T03:46:23;1.15;;;1.00;;
66702;SDS011;60933;46.398;-63.798;2022-09-09T03:48:50;1.08;;;0.60;;
66702;SDS011;60933;46.398;-63.798;2022-09-09T03:51:17;1.33;;;0.55;;
66702;SDS011;60933;46.398;-63.798;2022-09-09T03:53:44;1.25;;;0.70;;
66702;SDS011;60933;46.398;-63.798;2022-09-09T03:56:10;1.10;;;0.70;;
66702;SDS011;60933;46.398;-63.798;2022-09-09T03:58:36;0.60;;;0.40;;
66702;SDS011;60933;46.398;-63.798;2022-09-09T04:01:05;0.98;;;0.70;;
66702;SDS011;60933;46.398;-63.798;2022-09-09T04:03:34;0.90;;;0.50;;
66702;SDS011;60933;46.398;-63.798;2022-09-09T04:06:01;2.13;;;0.63;;
66702;SDS011;60933;46.398;-63.798;2022-09-09T04:08:29;1.25;;;0.60;;
66702;SDS011;60933;46.398;-63.798;2022-09-09T04:10:58;0.88;;;0.40;;
66702;SDS011;60933;46.398;-63.798;2022-09-09T04:13:27;0.95;;;0.50;;
66702;SDS011;60933;46.398;-63.798;2022-09-09T04:15:54;0.88;;;0.45;;
66702;SDS011;60933;46.398;-63.798;2022-09-09T04:18:22;1.13;;;0.75;;
66702;SDS011;60933;46.398;-63.798;2022-09-09T04:20:49;1.40;;;1.00;;
66702;SDS011;60933;46.398;-63.798;2022-09-09T04:23:16;1.30;;;0.90;;
66702;SDS011;60933;46.398;-63.798;2022-09-09T04:25:46;1.30;;;0.60;;
66702;SDS011;60933;46.398;-63.798;2022-09-09T04:28:14;1.38;;;0.70;;
66702;SDS011;60933;46.398;-63.798;2022-09-09T04:30:41;1.15;;;0.60;;
66702;SDS011;60933;46.398;-63.798;2022-09-09T04:33:07;1.20;;;0.50;;
66702;SDS011;60933;46.398;-63.798;2022-09-09T04:35:35;1.75;;;0.73;;
66702;SDS011;60933;46.398;-63.798;2022-09-09T04:38:02;1.23;;;1.05;;
66702;SDS011;60933;46.398;-63.798;2022-09-09T04:40:28;1.27;;;0.70;;
66702;SDS011;60933;46.398;-63.798;2022-09-09T04:42:57;1.63;;;1.20;;
66702;SDS011;60933;46.398;-63.798;2022-09-09T04:45:24;1.30;;;0.70;;
66702;SDS011;60933;46.398;-63.798;2022-09-09T04:47:51;0.95;;;0.85;;
66702;SDS011;60933;46.398;-63.798;2022-09-09T04:50:18;1.85;;;0.80;;
66702;SDS011;60933;46.398;-63.798;2022-09-09T04:52:44;2.20;;;0.55;;
66702;SDS011;60933;46.398;-63.798;2022-09-09T04:55:11;1.35;;;1.05;;
66702;SDS011;60933;46.398;-63.798;2022-09-09T04:57:38;0.95;;;0.60;;
66702;SDS011;60933;46.398;-63.798;2022-09-09T05:00:05;2.00;;;1.42;;
66702;SDS011;60933;46.398;-63.798;2022-09-09T05:02:32;1.27;;;0.50;;
66702;SDS011;60933;46.398;-63.798;2022-09-09T05:04:58;1.50;;;0.80;;
66702;SDS011;60933;46.398;-63.798;2022-09-09T05:07:26;1.65;;;1.02;;
66702;SDS011;60933;46.398;-63.798;2022-09-09T05:09:52;1.90;;;0.70;;
66702;SDS011;60933;46.398;-63.798;2022-09-09T05:12:19;3.83;;;0.88;;
66702;SDS011;60933;46.398;-63.798;2022-09-09T05:14:45;1.17;;;0.73;;
66702;SDS011;60933;46.398;-63.798;2022-09-09T05:17:11;1.30;;;1.00;;
66702;SDS011;60933;46.398;-63.798;2022-09-09T05:19:38;1.60;;;0.80;;
66702;SDS011;60933;46.398;-63.798;2022-09-09T05:22:04;1.77;;;1.40;;
66702;SDS011;60933;46.398;-63.798;2022-09-09T05:24:30;1.42;;;1.33;;
66702;SDS011;60933;46.398;-63.798;2022-09-09T05:26:58;1.88;;;1.00;;
66702;SDS011;60933;46.398;-63.798;2022-09-09T05:29:26;2.17;;;1.00;;
66702;SDS011;60933;46.398;-63.798;2022-09-09T05:31:53;2.08;;;1.17;;
66702;SDS011;60933;46.398;-63.798;2022-09-09T05:34:19;1.55;;;1.10;;
66702;SDS011;60933;46.398;-63.798;2022-09-09T05:36:46;1.55;;;0.80;;
66702;SDS011;60933;46.398;-63.798;2022-09-09T05:39:12;1.75;;;1.10;;
66702;SDS011;60933;46.398;-63.798;2022-09-09T05:41:38;1.40;;;0.90;;
66702;SDS011;60933;46.398;-63.798;2022-09-09T05:44:05;1.98;;;1.10;;
66702;SDS011;60933;46.398;-63.798;2022-09-09T05:46:31;2.25;;;0.98;;
66702;SDS011;60933;46.398;-63.798;2022-09-09T05:48:57;1.10;;;0.70;;
66702;SDS011;60933;46.398;-63.798;2022-09-09T05:51:24;1.52;;;0.60;;
66702;SDS011;60933;46.398;-63.798;2022-09-09T05:53:53;1.45;;;0.60;;
66702;SDS011;60933;46.398;-63.798;2022-09-09T05:56:24;0.90;;;0.80;;
66702;SDS011;60933;46.398;-63.798;2022-09-09T05:58:52;1.13;;;0.80;;
66702;SDS011;60933;46.398;-63.798;2022-09-09T06:01:23;1.77;;;0.90;;
66702;SDS011;60933;46.398;-63.798;2022-09-09T06:03:54;1.00;;;0.68;;
66702;SDS011;60933;46.398;-63.798;2022-09-09T06:06:24;1.48;;;0.93;;
66702;SDS011;60933;46.398;-63.798;2022-09-09T06:08:53;1.15;;;0.70;;
66702;SDS011;60933;46.398;-63.798;2022-09-09T06:11:22;1.70;;;1.25;;
66702;SDS011;60933;46.398;-63.798;2022-09-09T06:13:49;0.90;;;0.60;;
66702;SDS011;60933;46.398;-63.798;2022-09-09T06:16:19;1.27;;;0.50;;
66702;SDS011;60933;46.398;-63.798;2022-09-09T06:18:50;0.80;;;0.50;;
66702;SDS011;60933;46.398;-63.798;2022-09-09T06:21:24;1.15;;;0.45;;
66702;SDS011;60933;46.398;-63.798;2022-09-09T06:23:51;1.02;;;0.45;;
66702;SDS011;60933;46.398;-63.798;2022-09-09T06:26:28;1.40;;;0.60;;
66702;SDS011;60933;46.398;-63.798;2022-09-09T06:28:56;1.38;;;0.60;;
66702;SDS011;60933;46.398;-63.798;2022-09-09T06:31:24;1.58;;;0.80;;
66702;SDS011;60933;46.398;-63.798;2022-09-09T06:33:52;1.02;;;0.93;;
66702;SDS011;60933;46.398;-63.798;2022-09-09T06:36:30;0.52;;;0.50;;
66702;SDS011;60933;46.398;-63.798;2022-09-09T06:38:57;1.15;;;0.60;;
66702;SDS011;60933;46.398;-63.798;2022-09-09T06:41:25;0.90;;;0.50;;
66702;SDS011;60933;46.398;-63.798;2022-09-09T06:43:53;1.25;;;0.82;;
66702;SDS011;60933;46.398;-63.798;2022-09-09T06:46:24;1.25;;;0.65;;
66702;SDS011;60933;46.398;-63.798;2022-09-09T06:48:53;0.85;;;0.77;;
66702;SDS011;60933;46.398;-63.798;2022-09-09T06:51:25;1.00;;;0.50;;
66702;SDS011;60933;46.398;-63.798;2022-09-09T06:53:56;1.02;;;0.90;;
66702;SDS011;60933;46.398;-63.798;2022-09-09T06:56:24;1.25;;;0.60;;
66702;SDS011;60933;46.398;-63.798;2022-09-09T06:59:02;1.10;;;0.70;;
66702;SDS011;60933;46.398;-63.798;2022-09-09T07:01:34;1.27;;;0.95;;
66702;SDS011;60933;46.398;-63.798;2022-09-09T07:04:07;1.13;;;0.70;;
66702;SDS011;60933;46.398;-63.798;2022-09-09T07:06:41;1.50;;;0.77;;
66702;SDS011;60933;46.398;-63.798;2022-09-09T07:09:10;2.25;;;0.95;;
66702;SDS011;60933;46.398;-63.798;2022-09-09T07:11:41;2.72;;;1.85;;
66702;SDS011;60933;46.398;-63.798;2022-09-09T07:14:09;1.30;;;0.93;;
66702;SDS011;60933;46.398;-63.798;2022-09-09T07:16:39;1.08;;;0.77;;
66702;SDS011;60933;46.398;-63.798;2022-09-09T07:19:09;0.82;;;0.60;;
66702;SDS011;60933;46.398;-63.798;2022-09-09T07:21:36;1.58;;;0.90;;
66702;SDS011;60933;46.398;-63.798;2022-09-09T07:24:02;1.13;;;0.88;;
66702;SDS011;60933;46.398;-63.798;2022-09-09T07:26:32;1.02;;;0.65;;
66702;SDS011;60933;46.398;-63.798;2022-09-09T07:29:00;1.42;;;0.85;;
66702;SDS011;60933;46.398;-63.798;2022-09-09T07:31:30;0.80;;;0.40;;
66702;SDS011;60933;46.398;-63.798;2022-09-09T07:33:58;0.90;;;0.70;;
66702;SDS011;60933;46.398;-63.798;2022-09-09T07:36:28;1.35;;;0.73;;
66702;SDS011;60933;46.398;-63.798;2022-09-09T07:39:00;1.50;;;0.75;;
66702;SDS011;60933;46.398;-63.798;2022-09-09T07:41:30;2.03;;;1.10;;
66702;SDS011;60933;46.398;-63.798;2022-09-09T07:44:11;1.80;;;1.15;;
66702;SDS011;60933;46.398;-63.798;2022-09-09T07:46:42;1.10;;;0.70;;
66702;SDS011;60933;46.398;-63.798;2022-09-09T07:49:11;1.67;;;1.27;;
66702;SDS011;60933;46.398;-63.798;2022-09-09T07:51:39;2.42;;;1.25;;
66702;SDS011;60933;46.398;-63.798;2022-09-09T07:54:08;1.92;;;0.95;;
66702;SDS011;60933;46.398;-63.798;2022-09-09T07:56:37;1.10;;;0.82;;
66702;SDS011;60933;46.398;-63.798;2022-09-09T07:59:04;1.35;;;1.02;;
66702;SDS011;60933;46.398;-63.798;2022-09-09T08:01:32;1.23;;;0.75;;
66702;SDS011;60933;46.398;-63.798;2022-09-09T08:04:03;1.20;;;0.77;;
66702;SDS011;60933;46.398;-63.798;2022-09-09T08:06:39;2.28;;;0.70;;
66702;SDS011;60933;46.398;-63.798;2022-09-09T08:09:07;1.48;;;1.05;;
66702;SDS011;60933;46.398;-63.798;2022-09-09T08:11:35;1.58;;;1.10;;
66702;SDS011;60933;46.398;-63.798;2022-09-09T08:14:01;2.30;;;0.85;;
66702;SDS011;60933;46.398;-63.798;2022-09-09T08:16:29;2.38;;;0.90;;
66702;SDS011;60933;46.398;-63.798;2022-09-09T08:18:57;1.92;;;0.90;;
66702;SDS011;60933;46.398;-63.798;2022-09-09T08:21:25;3.80;;;1.33;;
66702;SDS011;60933;46.398;-63.798;2022-09-09T08:23:54;1.58;;;1.05;;
66702;SDS011;60933;46.398;-63.798;2022-09-09T08:26:22;1.58;;;0.95;;
66702;SDS011;60933;46.398;-63.798;2022-09-09T08:31:21;1.40;;;1.20;;
66702;SDS011;60933;46.398;-63.798;2022-09-09T08:33:50;1.75;;;1.08;;
66702;SDS011;60933;46.398;-63.798;2022-09-09T08:36:17;1.60;;;1.00;;
66702;SDS011;60933;46.398;-63.798;2022-09-09T08:38:49;2.45;;;1.13;;
66702;SDS011;60933;46.398;-63.798;2022-09-09T08:44:02;1.63;;;1.13;;
66702;SDS011;60933;46.398;-63.798;2022-09-09T08:58:00;1.65;;;1.10;;
66702;SDS011;60933;46.398;-63.798;2022-09-09T09:00:56;1.88;;;1.23;;
66702;SDS011;60933;46.398;-63.798;2022-09-09T09:08:58;1.75;;;1.05;;
66702;SDS011;60933;46.398;-63.798;2022-09-09T09:11:35;1.92;;;1.42;;
66702;SDS011;60933;46.398;-63.798;2022-09-09T09:14:12;2.55;;;1.38;;
66702;SDS011;60933;46.398;-63.798;2022-09-09T09:19:52;2.05;;;1.08;;
66702;SDS011;60933;46.398;-63.798;2022-09-09T09:22:20;2.00;;;1.00;;
66702;SDS011;60933;46.398;-63.798;2022-09-09T09:25:19;3.45;;;1.40;;
66702;SDS011;60933;46.398;-63.798;2022-09-09T09:28:00;1.92;;;1.20;;
66702;SDS011;60933;46.398;-63.798;2022-09-09T09:30:34;1.70;;;1.45;;
66702;SDS011;60933;46.398;-63.798;2022-09-09T09:35:56;2.85;;;1.30;;
66702;SDS011;60933;46.398;-63.798;2022-09-09T09:38:25;2.20;;;1.25;;
66702;SDS011;60933;46.398;-63.798;2022-09-09T09:40:54;2.75;;;1.60;;
66702;SDS011;60933;46.398;-63.798;2022-09-09T09:43:33;1.52;;;1.10;;
66702;SDS011;60933;46.398;-63.798;2022-09-09T09:48:29;3.30;;;1.25;;
66702;SDS011;60933;46.398;-63.798;2022-09-09T09:50:56;2.33;;;1.23;;
66702;SDS011;60933;46.398;-63.798;2022-09-09T09:53:29;1.77;;;1.10;;
66702;SDS011;60933;46.398;-63.798;2022-09-09T09:55:58;1.80;;;1.10;;
66702;SDS011;60933;46.398;-63.798;2022-09-09T09:58:27;2.25;;;1.40;;
66702;SDS011;60933;46.398;-63.798;2022-09-09T10:00:58;2.17;;;1.50;;
66702;SDS011;60933;46.398;-63.798;2022-09-09T10:05:53;2.55;;;1.33;;
66702;SDS011;60933;46.398;-63.798;2022-09-09T10:08:22;2.17;;;1.27;;
66702;SDS011;60933;46.398;-63.798;2022-09-09T10:24:39;2.65;;;1.50;;
66702;SDS011;60933;46.398;-63.798;2022-09-09T10:38:47;3.25;;;1.40;;
66702;SDS011;60933;46.398;-63.798;2022-09-09T10:44:14;3.25;;;1.33;;
66702;SDS011;60933;46.398;-63.798;2022-09-09T10:55:16;1.15;;;0.80;;
66702;SDS011;60933;46.398;-63.798;2022-09-09T10:57:46;1.35;;;1.05;;
66702;SDS011;60933;46.398;-63.798;2022-09-09T11:00:18;2.25;;;2.05;;
66702;SDS011;60933;46.398;-63.798;2022-09-09T11:02:57;1.88;;;1.13;;
66702;SDS011;60933;46.398;-63.798;2022-09-09T11:05:43;3.67;;;1.30;;
66702;SDS011;60933;46.398;-63.798;2022-09-09T11:08:14;2.78;;;0.95;;
66702;SDS011;60933;46.398;-63.798;2022-09-09T11:10:53;2.03;;;1.00;;
66702;SDS011;60933;46.398;-63.798;2022-09-09T11:19:04;2.90;;;1.00;;
66702;SDS011;60933;46.398;-63.798;2022-09-09T11:21:37;1.90;;;0.95;;
66702;SDS011;60933;46.398;-63.798;2022-09-09T11:24:11;2.75;;;1.27;;
66702;SDS011;60933;46.398;-63.798;2022-09-09T11:26:47;4.07;;;0.88;;
66702;SDS011;60933;46.398;-63.798;2022-09-09T11:40:24;1.95;;;1.20;;
66702;SDS011;60933;46.398;-63.798;2022-09-09T11:43:02;2.17;;;1.88;;
66702;SDS011;60933;46.398;-63.798;2022-09-09T11:45:37;1.80;;;1.00;;
66702;SDS011;60933;46.398;-63.798;2022-09-09T11:48:23;3.28;;;1.45;;
66702;SDS011;60933;46.398;-63.798;2022-09-09T11:51:08;4.13;;;1.60;;
66702;SDS011;60933;46.398;-63.798;2022-09-09T11:53:47;2.08;;;1.30;;
66702;SDS011;60933;46.398;-63.798;2022-09-09T11:56:23;2.85;;;1.15;;
66702;SDS011;60933;46.398;-63.798;2022-09-09T11:58:56;3.38;;;1.45;;
66702;SDS011;60933;46.398;-63.798;2022-09-09T12:06:44;1.10;;;0.80;;
66702;SDS011;60933;46.398;-63.798;2022-09-09T12:09:25;4.68;;;1.63;;
66702;SDS011;60933;46.398;-63.798;2022-09-09T12:17:28;2.63;;;1.13;;
66702;SDS011;60933;46.398;-63.798;2022-09-09T12:20:15;1.83;;;1.30;;
66702;SDS011;60933;46.398;-63.798;2022-09-09T12:25:23;2.10;;;1.20;;
66702;SDS011;60933;46.398;-63.798;2022-09-09T12:30:51;1.38;;;1.20;;
66702;SDS011;60933;46.398;-63.798;2022-09-09T12:33:43;2.10;;;1.50;;
66702;SDS011;60933;46.398;-63.798;2022-09-09T12:36:22;2.40;;;1.20;;
66702;SDS011;60933;46.398;-63.798;2022-09-09T12:38:54;2.33;;;1.50;;
66702;SDS011;60933;46.398;-63.798;2022-09-09T12:41:28;2.03;;;1.50;;
66702;SDS011;60933;46.398;-63.798;2022-09-09T12:44:06;1.10;;;0.93;;
66702;SDS011;60933;46.398;-63.798;2022-09-09T12:46:36;2.15;;;1.40;;
66702;SDS011;60933;46.398;-63.798;2022-09-09T12:51:54;1.75;;;1.42;;
66702;SDS011;60933;46.398;-63.798;2022-09-09T12:54:22;2.08;;;1.42;;
66702;SDS011;60933;46.398;-63.798;2022-09-09T12:56:48;1.60;;;1.10;;
66702;SDS011;60933;46.398;-63.798;2022-09-09T12:59:25;1.15;;;1.02;;
66702;SDS011;60933;46.398;-63.798;2022-09-09T13:02:00;1.45;;;1.20;;
66702;SDS011;60933;46.398;-63.798;2022-09-09T13:04:26;2.45;;;1.42;;
66702;SDS011;60933;46.398;-63.798;2022-09-09T13:06:52;2.20;;;1.48;;
66702;SDS011;60933;46.398;-63.798;2022-09-09T13:09:18;3.50;;;1.60;;
66702;SDS011;60933;46.398;-63.798;2022-09-09T13:11:47;3.13;;;1.63;;
66702;SDS011;60933;46.398;-63.798;2022-09-09T13:14:19;2.13;;;1.33;;
66702;SDS011;60933;46.398;-63.798;2022-09-09T13:16:55;1.75;;;1.27;;
66702;SDS011;60933;46.398;-63.798;2022-09-09T13:19:26;2.15;;;1.50;;
66702;SDS011;60933;46.398;-63.798;2022-09-09T13:21:59;2.15;;;0.95;;
66702;SDS011;60933;46.398;-63.798;2022-09-09T13:24:37;2.50;;;1.33;;
66702;SDS011;60933;46.398;-63.798;2022-09-09T13:27:04;3.17;;;1.08;;
66702;SDS011;60933;46.398;-63.798;2022-09-09T13:29:53;2.17;;;1.33;;
66702;SDS011;60933;46.398;-63.798;2022-09-09T13:32:21;1.90;;;1.50;;
66702;SDS011;60933;46.398;-63.798;2022-09-09T13:34:52;1.70;;;1.10;;
66702;SDS011;60933;46.398;-63.798;2022-09-09T13:37:31;2.03;;;1.40;;
66702;SDS011;60933;46.398;-63.798;2022-09-09T13:40:02;1.13;;;0.82;;
66702;SDS011;60933;46.398;-63.798;2022-09-09T13:42:31;2.97;;;1.65;;
66702;SDS011;60933;46.398;-63.798;2022-09-09T13:45:03;1.85;;;1.40;;
66702;SDS011;60933;46.398;-63.798;2022-09-09T13:47:34;7.15;;;1.60;;
66702;SDS011;60933;46.398;-63.798;2022-09-09T13:52:47;3.63;;;1.52;;
66702;SDS011;60933;46.398;-63.798;2022-09-09T13:55:16;1.55;;;1.35;;
66702;SDS011;60933;46.398;-63.798;2022-09-09T13:57:55;2.28;;;1.63;;
66702;SDS011;60933;46.398;-63.798;2022-09-09T14:00:31;1.70;;;1.38;;
66702;SDS011;60933;46.398;-63.798;2022-09-09T14:02:58;3.92;;;2.45;;
66702;SDS011;60933;46.398;-63.798;2022-09-09T14:05:27;1.95;;;1.40;;
66702;SDS011;60933;46.398;-63.798;2022-09-09T14:07:55;1.88;;;1.20;;
66702;SDS011;60933;46.398;-63.798;2022-09-09T14:10:22;1.77;;;1.60;;
66702;SDS011;60933;46.398;-63.798;2022-09-09T14:12:48;2.58;;;1.38;;
66702;SDS011;60933;46.398;-63.798;2022-09-09T14:15:14;2.88;;;1.45;;
66702;SDS011;60933;46.398;-63.798;2022-09-09T14:17:41;2.50;;;1.90;;
66702;SDS011;60933;46.398;-63.798;2022-09-09T14:20:08;2.13;;;1.75;;
66702;SDS011;60933;46.398;-63.798;2022-09-09T14:22:37;1.88;;;1.67;;
66702;SDS011;60933;46.398;-63.798;2022-09-09T14:25:05;2.08;;;1.80;;
66702;SDS011;60933;46.398;-63.798;2022-09-09T14:27:31;1.98;;;1.58;;
66702;SDS011;60933;46.398;-63.798;2022-09-09T14:29:58;2.13;;;1.70;;
66702;SDS011;60933;46.398;-63.798;2022-09-09T14:32:25;2.63;;;1.50;;
66702;SDS011;60933;46.398;-63.798;2022-09-09T14:34:51;2.03;;;1.70;;
66702;SDS011;60933;46.398;-63.798;2022-09-09T14:37:18;3.95;;;2.13;;
66702;SDS011;60933;46.398;-63.798;2022-09-09T14:39:44;3.03;;;1.70;;
66702;SDS011;60933;46.398;-63.798;2022-09-09T14:42:12;2.92;;;2.65;;
66702;SDS011;60933;46.398;-63.798;2022-09-09T14:44:39;2.17;;;1.98;;
66702;SDS011;60933;46.398;-63.798;2022-09-09T14:47:06;1.98;;;1.77;;
66702;SDS011;60933;46.398;-63.798;2022-09-09T14:49:33;2.33;;;1.65;;
66702;SDS011;60933;46.398;-63.798;2022-09-09T14:52:00;1.95;;;1.50;;
66702;SDS011;60933;46.398;-63.798;2022-09-09T14:54:27;1.73;;;1.63;;
66702;SDS011;60933;46.398;-63.798;2022-09-09T14:56:53;2.83;;;1.88;;
66702;SDS011;60933;46.398;-63.798;2022-09-09T14:59:19;2.45;;;1.90;;
66702;SDS011;60933;46.398;-63.798;2022-09-09T15:01:47;3.42;;;2.30;;
66702;SDS011;60933;46.398;-63.798;2022-09-09T15:04:13;3.00;;;2.33;;
66702;SDS011;60933;46.398;-63.798;2022-09-09T15:06:40;4.07;;;2.42;;
66702;SDS011;60933;46.398;-63.798;2022-09-09T15:09:08;4.38;;;2.72;;
66702;SDS011;60933;46.398;-63.798;2022-09-09T15:11:35;2.67;;;2.38;;
66702;SDS011;60933;46.398;-63.798;2022-09-09T15:14:03;3.33;;;2.20;;
66702;SDS011;60933;46.398;-63.798;2022-09-09T15:16:30;3.75;;;2.75;;
66702;SDS011;60933;46.398;-63.798;2022-09-09T15:18:58;2.33;;;2.13;;
66702;SDS011;60933;46.398;-63.798;2022-09-09T15:21:26;2.25;;;1.95;;
66702;SDS011;60933;46.398;-63.798;2022-09-09T15:23:57;3.33;;;2.03;;
66702;SDS011;60933;46.398;-63.798;2022-09-09T15:26:24;2.30;;;2.00;;
66702;SDS011;60933;46.398;-63.798;2022-09-09T15:28:51;2.28;;;2.08;;
66702;SDS011;60933;46.398;-63.798;2022-09-09T15:31:18;2.60;;;2.40;;
66702;SDS011;60933;46.398;-63.798;2022-09-09T15:34:03;3.35;;;2.33;;
66702;SDS011;60933;46.398;-63.798;2022-09-09T15:36:31;2.92;;;2.47;;
66702;SDS011;60933;46.398;-63.798;2022-09-09T15:39:00;2.85;;;2.00;;
66702;SDS011;60933;46.398;-63.798;2022-09-09T15:41:27;3.22;;;2.00;;
66702;SDS011;60933;46.398;-63.798;2022-09-09T15:43:54;3.65;;;2.20;;
66702;SDS011;60933;46.398;-63.798;2022-09-09T15:48:54;2.35;;;1.73;;
66702;SDS011;60933;46.398;-63.798;2022-09-09T15:51:23;2.05;;;1.88;;
66702;SDS011;60933;46.398;-63.798;2022-09-09T15:53:54;3.15;;;1.60;;
66702;SDS011;60933;46.398;-63.798;2022-09-09T15:56:22;2.30;;;2.08;;
66702;SDS011;60933;46.398;-63.798;2022-09-09T15:58:49;2.30;;;2.10;;
66702;SDS011;60933;46.398;-63.798;2022-09-09T16:01:16;3.83;;;2.13;;
66702;SDS011;60933;46.398;-63.798;2022-09-09T16:03:42;3.58;;;1.80;;
66702;SDS011;60933;46.398;-63.798;2022-09-09T16:06:13;3.92;;;1.60;;
66702;SDS011;60933;46.398;-63.798;2022-09-09T16:08:41;3.47;;;1.73;;
66702;SDS011;60933;46.398;-63.798;2022-09-09T16:11:10;2.40;;;1.50;;
66702;SDS011;60933;46.398;-63.798;2022-09-09T16:13:39;1.60;;;1.42;;
66702;SDS011;60933;46.398;-63.798;2022-09-09T16:16:07;3.05;;;1.60;;
66702;SDS011;60933;46.398;-63.798;2022-09-09T16:18:38;2.50;;;1.73;;
66702;SDS011;60933;46.398;-63.798;2022-09-09T16:21:06;1.77;;;1.20;;
66702;SDS011;60933;46.398;-63.798;2022-09-09T16:23:33;3.58;;;1.67;;
66702;SDS011;60933;46.398;-63.798;2022-09-09T16:26:00;5.10;;;2.25;;
66702;SDS011;60933;46.398;-63.798;2022-09-09T16:28:27;1.90;;;1.52;;
66702;SDS011;60933;46.398;-63.798;2022-09-09T16:30:54;3.75;;;1.95;;
66702;SDS011;60933;46.398;-63.798;2022-09-09T16:33:21;11.57;;;1.80;;
66702;SDS011;60933;46.398;-63.798;2022-09-09T16:35:47;1.88;;;1.70;;
66702;SDS011;60933;46.398;-63.798;2022-09-09T16:38:14;4.10;;;2.55;;
66702;SDS011;60933;46.398;-63.798;2022-09-09T16:40:40;1.83;;;1.38;;
66702;SDS011;60933;46.398;-63.798;2022-09-09T16:43:07;1.52;;;1.42;;
66702;SDS011;60933;46.398;-63.798;2022-09-09T16:45:43;3.03;;;1.73;;
66702;SDS011;60933;46.398;-63.798;2022-09-09T16:48:11;2.55;;;1.63;;
66702;SDS011;60933;46.398;-63.798;2022-09-09T16:50:37;1.80;;;1.60;;
66702;SDS011;60933;46.398;-63.798;2022-09-09T16:53:04;2.78;;;1.42;;
66702;SDS011;60933;46.398;-63.798;2022-09-09T16:55:37;2.17;;;1.70;;
66702;SDS011;60933;46.398;-63.798;2022-09-09T17:00:30;3.13;;;2.72;;
66702;SDS011;60933;46.398;-63.798;2022-09-09T17:02:56;3.45;;;1.80;;
66702;SDS011;60933;46.398;-63.798;2022-09-09T17:05:24;4.05;;;2.25;;
66702;SDS011;60933;46.398;-63.798;2022-09-09T17:07:50;1.70;;;1.50;;
66702;SDS011;60933;46.398;-63.798;2022-09-09T17:10:16;1.42;;;1.33;;
66702;SDS011;60933;46.398;-63.798;2022-09-09T17:12:43;2.70;;;1.73;;
66702;SDS011;60933;46.398;-63.798;2022-09-09T17:15:09;2.40;;;1.40;;
66702;SDS011;60933;46.398;-63.798;2022-09-09T17:17:35;1.80;;;1.55;;
66702;SDS011;60933;46.398;-63.798;2022-09-09T17:20:01;1.85;;;1.73;;